VJT569 LRCL-LIRA
Flight info
| Callsign | VJT569 |
|---|---|
| Flight time | 1h 38m |
| Altitude | 40000 |
| Route | ELROM DCT DIRER DCT PEVON DCT VELUG/N0396F190 Z924 MOPUV |
| Aircraft | CL60/M-SBDE1E2E3FGHIJ1J4J5J7M3RWXYZ/LB1V1D1 |
Departure
| Time | 2026-05-07 02:07 |
|---|---|
| Airport | Avram Iancu Cluj International Airport (LRCL) |
Arrival
| Time | 2026-05-07 03:45 |
|---|---|
| Airport | Ciampino–G. B. Pastine International Airport (LIRA) |
| Time | Latitude | Longitude | Altitude | Speed | Heading |
|---|---|---|---|---|---|
| 2026-05-07 01:33 | 46.78445 | 23.69291 | 1031 ft | 0 kts | 256° |
| 2026-05-07 02:02 | 46.78482 | 23.69281 | 1031 ft | 11 kts | 21° |
| 2026-05-07 02:03 | 46.78532 | 23.69310 | 1031 ft | 12 kts | 18° |
| 2026-05-07 02:03 | 46.78594 | 23.69310 | 1031 ft | 9 kts | 314° |
| 2026-05-07 02:03 | 46.78592 | 23.69202 | 1031 ft | 12 kts | 259° |
| 2026-05-07 02:03 | 46.78571 | 23.69050 | 1031 ft | 16 kts | 259° |
| 2026-05-07 02:04 | 46.78547 | 23.68870 | 1032 ft | 18 kts | 259° |
| 2026-05-07 02:04 | 46.78522 | 23.68674 | 1033 ft | 20 kts | 259° |
| 2026-05-07 02:04 | 46.78492 | 23.68460 | 1034 ft | 22 kts | 258° |
| 2026-05-07 02:04 | 46.78460 | 23.68233 | 1036 ft | 23 kts | 259° |
| 2026-05-07 02:05 | 46.78428 | 23.67991 | 1037 ft | 24 kts | 259° |
| 2026-05-07 02:05 | 46.78392 | 23.67741 | 1039 ft | 25 kts | 258° |
| 2026-05-07 02:05 | 46.78361 | 23.67505 | 1040 ft | 22 kts | 259° |
| 2026-05-07 02:05 | 46.78342 | 23.67379 | 1041 ft | 10 kts | 258° |
| 2026-05-07 02:06 | 46.78345 | 23.67264 | 1042 ft | 12 kts | 300° |
| 2026-05-07 02:06 | 46.78421 | 23.67171 | 1042 ft | 14 kts | 343° |
| 2026-05-07 02:06 | 46.78479 | 23.67232 | 1042 ft | 13 kts | 73° |
| 2026-05-07 02:06 | 46.78516 | 23.67407 | 1040 ft | 34 kts | 72° |
| 2026-05-07 02:07 | 46.78700 | 23.68224 | 1036 ft | 134 kts | 72° |
| 2026-05-07 02:07 | 46.79445 | 23.71674 | 2200 ft | 216 kts | 73° |
| 2026-05-07 02:07 | 46.79944 | 23.73840 | 3218 ft | 234 kts | 72° |
| 2026-05-07 02:08 | 46.80526 | 23.76177 | 4230 ft | 258 kts | 71° |
| 2026-05-07 02:08 | 46.81135 | 23.78683 | 5337 ft | 274 kts | 73° |
| 2026-05-07 02:08 | 46.81731 | 23.81373 | 6187 ft | 285 kts | 73° |
| 2026-05-07 02:08 | 46.82462 | 23.84053 | 6965 ft | 288 kts | 59° |
| 2026-05-07 02:09 | 46.83781 | 23.86263 | 7761 ft | 290 kts | 37° |
| 2026-05-07 02:09 | 46.85555 | 23.87619 | 8548 ft | 292 kts | 15° |
| 2026-05-07 02:09 | 46.87565 | 23.87893 | 9341 ft | 292 kts | 351° |
| 2026-05-07 02:09 | 46.89492 | 23.86961 | 10137 ft | 293 kts | 328° |
| 2026-05-07 02:10 | 46.91195 | 23.85321 | 10913 ft | 295 kts | 323° |
| 2026-05-07 02:10 | 46.92918 | 23.83608 | 11695 ft | 305 kts | 323° |
| 2026-05-07 02:10 | 46.94741 | 23.81800 | 12472 ft | 326 kts | 324° |
| 2026-05-07 02:10 | 46.96639 | 23.79901 | 13234 ft | 339 kts | 322° |
| 2026-05-07 02:11 | 46.98306 | 23.77486 | 14033 ft | 341 kts | 304° |
| 2026-05-07 02:11 | 46.99355 | 23.74393 | 14796 ft | 343 kts | 285° |
| 2026-05-07 02:11 | 46.99630 | 23.70947 | 15595 ft | 343 kts | 265° |
| 2026-05-07 02:11 | 46.99027 | 23.67553 | 16384 ft | 345 kts | 244° |
| 2026-05-07 02:12 | 46.97649 | 23.64661 | 17204 ft | 350 kts | 230° |
| 2026-05-07 02:12 | 46.96045 | 23.61969 | 17917 ft | 353 kts | 229° |
| 2026-05-07 02:12 | 46.94432 | 23.59255 | 18735 ft | 355 kts | 230° |
| 2026-05-07 02:12 | 46.92803 | 23.56514 | 19540 ft | 361 kts | 230° |
| 2026-05-07 02:13 | 46.91143 | 23.53725 | 20308 ft | 365 kts | 230° |
| 2026-05-07 02:13 | 46.89472 | 23.50922 | 21089 ft | 369 kts | 230° |
| 2026-05-07 02:13 | 46.87776 | 23.48075 | 21871 ft | 372 kts | 230° |
| 2026-05-07 02:13 | 46.86070 | 23.45216 | 22656 ft | 375 kts | 230° |
| 2026-05-07 02:14 | 46.84350 | 23.42337 | 23426 ft | 377 kts | 230° |
| 2026-05-07 02:14 | 46.82625 | 23.39451 | 24228 ft | 378 kts | 230° |
| 2026-05-07 02:14 | 46.80894 | 23.36559 | 25012 ft | 379 kts | 230° |
| 2026-05-07 02:14 | 46.79277 | 23.33509 | 25820 ft | 377 kts | 240° |
| 2026-05-07 02:15 | 46.78307 | 23.29972 | 26628 ft | 375 kts | 256° |
| 2026-05-07 02:15 | 46.77740 | 23.26285 | 27404 ft | 373 kts | 257° |
| 2026-05-07 02:15 | 46.77183 | 23.22612 | 28194 ft | 372 kts | 257° |
| 2026-05-07 02:15 | 46.76623 | 23.18945 | 28957 ft | 370 kts | 257° |
| 2026-05-07 02:16 | 46.76066 | 23.15306 | 29734 ft | 366 kts | 257° |
| 2026-05-07 02:16 | 46.75515 | 23.11715 | 30528 ft | 363 kts | 257° |
| 2026-05-07 02:16 | 46.74958 | 23.08116 | 31032 ft | 366 kts | 256° |
| 2026-05-07 02:16 | 46.74041 | 23.04573 | 31042 ft | 382 kts | 241° |
| 2026-05-07 02:17 | 46.72335 | 23.01500 | 31062 ft | 397 kts | 222° |
| 2026-05-07 02:17 | 46.70030 | 22.99139 | 31179 ft | 408 kts | 215° |
| 2026-05-07 02:17 | 46.67619 | 22.96840 | 31480 ft | 414 kts | 216° |
| 2026-05-07 02:17 | 46.65207 | 22.94530 | 31653 ft | 421 kts | 216° |
| 2026-05-07 02:18 | 46.62734 | 22.92164 | 31836 ft | 428 kts | 216° |
| 2026-05-07 02:18 | 46.60226 | 22.89769 | 32117 ft | 431 kts | 216° |
| 2026-05-07 02:18 | 46.57703 | 22.87361 | 32471 ft | 432 kts | 216° |
| 2026-05-07 02:18 | 46.55166 | 22.84944 | 32808 ft | 434 kts | 216° |
| 2026-05-07 02:19 | 46.52634 | 22.82534 | 33089 ft | 435 kts | 216° |
| 2026-05-07 02:19 | 46.50093 | 22.80117 | 33375 ft | 437 kts | 216° |
| 2026-05-07 02:19 | 46.47528 | 22.77681 | 33615 ft | 439 kts | 216° |
| 2026-05-07 02:19 | 46.44994 | 22.75277 | 33864 ft | 440 kts | 216° |
| 2026-05-07 02:20 | 46.42423 | 22.72840 | 34159 ft | 440 kts | 217° |
| 2026-05-07 02:20 | 46.39851 | 22.70405 | 34502 ft | 438 kts | 217° |
| 2026-05-07 02:20 | 46.37286 | 22.67981 | 34816 ft | 437 kts | 217° |
| 2026-05-07 02:20 | 46.34765 | 22.65600 | 35093 ft | 436 kts | 217° |
| 2026-05-07 02:21 | 46.32205 | 22.63183 | 35339 ft | 436 kts | 217° |
| 2026-05-07 02:21 | 46.29657 | 22.60782 | 35581 ft | 436 kts | 217° |
| 2026-05-07 02:21 | 46.27108 | 22.58382 | 35781 ft | 436 kts | 217° |
| 2026-05-07 02:21 | 46.24556 | 22.55981 | 36018 ft | 436 kts | 217° |
| 2026-05-07 02:22 | 46.22022 | 22.53602 | 36230 ft | 436 kts | 217° |
| 2026-05-07 02:22 | 46.19469 | 22.51205 | 36464 ft | 435 kts | 217° |
| 2026-05-07 02:22 | 46.16919 | 22.48816 | 36701 ft | 435 kts | 217° |
| 2026-05-07 02:22 | 46.14362 | 22.46422 | 36932 ft | 435 kts | 217° |
| 2026-05-07 02:23 | 46.11836 | 22.44059 | 37153 ft | 435 kts | 217° |
| 2026-05-07 02:23 | 46.09288 | 22.41678 | 37386 ft | 435 kts | 217° |
| 2026-05-07 02:23 | 46.06743 | 22.39304 | 37630 ft | 435 kts | 217° |
| 2026-05-07 02:23 | 46.04196 | 22.36930 | 37840 ft | 435 kts | 217° |
| 2026-05-07 02:24 | 46.01637 | 22.34547 | 38012 ft | 436 kts | 216° |
| 2026-05-07 02:24 | 45.99071 | 22.32160 | 38181 ft | 437 kts | 216° |
| 2026-05-07 02:24 | 45.96502 | 22.29773 | 38386 ft | 437 kts | 216° |
| 2026-05-07 02:24 | 45.93912 | 22.27370 | 38584 ft | 436 kts | 216° |
| 2026-05-07 02:25 | 45.91368 | 22.25012 | 38812 ft | 436 kts | 216° |
| 2026-05-07 02:25 | 45.88821 | 22.22654 | 39014 ft | 435 kts | 216° |
| 2026-05-07 02:25 | 45.86242 | 22.20269 | 39186 ft | 435 kts | 216° |
| 2026-05-07 02:25 | 45.83670 | 22.17893 | 39372 ft | 435 kts | 216° |
| 2026-05-07 02:26 | 45.81105 | 22.15527 | 39567 ft | 434 kts | 216° |
| 2026-05-07 02:26 | 45.78543 | 22.13164 | 39733 ft | 433 kts | 216° |
| 2026-05-07 02:26 | 45.75982 | 22.10806 | 39858 ft | 434 kts | 216° |
| 2026-05-07 02:26 | 45.73460 | 22.08486 | 39924 ft | 435 kts | 216° |
| 2026-05-07 02:27 | 45.68334 | 22.03779 | 39952 ft | 438 kts | 216° |
| 2026-05-07 02:27 | 45.63168 | 21.99045 | 39965 ft | 442 kts | 216° |
| 2026-05-07 02:28 | 45.57916 | 21.94243 | 39981 ft | 447 kts | 216° |
| 2026-05-07 02:28 | 45.52649 | 21.89439 | 39986 ft | 451 kts | 216° |
| 2026-05-07 02:29 | 45.47327 | 21.84594 | 39990 ft | 457 kts | 216° |
| 2026-05-07 02:29 | 45.41922 | 21.79687 | 39977 ft | 458 kts | 216° |
| 2026-05-07 02:30 | 45.36554 | 21.74826 | 39992 ft | 457 kts | 216° |
| 2026-05-07 02:30 | 45.31188 | 21.69977 | 39993 ft | 456 kts | 216° |
| 2026-05-07 02:31 | 45.25795 | 21.65116 | 39997 ft | 455 kts | 216° |
| 2026-05-07 02:31 | 45.20439 | 21.60298 | 39983 ft | 455 kts | 216° |
| 2026-05-07 02:32 | 45.15061 | 21.55472 | 39985 ft | 455 kts | 216° |
| 2026-05-07 02:32 | 45.09695 | 21.50666 | 39983 ft | 455 kts | 216° |
| 2026-05-07 02:33 | 45.04385 | 21.45850 | 40011 ft | 453 kts | 219° |
| 2026-05-07 02:33 | 44.99768 | 21.39890 | 39987 ft | 445 kts | 233° |
| 2026-05-07 02:34 | 44.96371 | 21.32608 | 39981 ft | 441 kts | 245° |
| 2026-05-07 02:34 | 44.93902 | 21.24610 | 39987 ft | 441 kts | 248° |
| 2026-05-07 02:35 | 44.91472 | 21.16589 | 39973 ft | 441 kts | 248° |
| 2026-05-07 02:35 | 44.89053 | 21.08627 | 39982 ft | 440 kts | 249° |
| 2026-05-07 02:36 | 44.86612 | 21.00617 | 39988 ft | 440 kts | 248° |
| 2026-05-07 02:36 | 44.84180 | 20.92664 | 39968 ft | 440 kts | 248° |
| 2026-05-07 02:37 | 44.81750 | 20.84741 | 39965 ft | 440 kts | 248° |
| 2026-05-07 02:37 | 44.79311 | 20.76818 | 39967 ft | 439 kts | 248° |
| 2026-05-07 02:38 | 44.76889 | 20.68971 | 39995 ft | 439 kts | 248° |
| 2026-05-07 02:38 | 44.74442 | 20.61068 | 39991 ft | 439 kts | 248° |
| 2026-05-07 02:39 | 44.71999 | 20.53200 | 39998 ft | 439 kts | 248° |
| 2026-05-07 02:39 | 44.69542 | 20.45316 | 39988 ft | 439 kts | 248° |
| 2026-05-07 02:40 | 44.67079 | 20.37433 | 39997 ft | 438 kts | 248° |
| 2026-05-07 02:40 | 44.64624 | 20.29601 | 40000 ft | 438 kts | 247° |
| 2026-05-07 02:41 | 44.62149 | 20.21731 | 40005 ft | 438 kts | 247° |
| 2026-05-07 02:41 | 44.59748 | 20.14118 | 39986 ft | 438 kts | 247° |
| 2026-05-07 02:42 | 44.57262 | 20.06257 | 39972 ft | 438 kts | 247° |
| 2026-05-07 02:42 | 44.54791 | 19.98468 | 39994 ft | 438 kts | 246° |
| 2026-05-07 02:43 | 44.52299 | 19.90636 | 39985 ft | 437 kts | 246° |
| 2026-05-07 02:43 | 44.49806 | 19.82825 | 39988 ft | 437 kts | 247° |
| 2026-05-07 02:44 | 44.47314 | 19.75042 | 40002 ft | 437 kts | 246° |
| 2026-05-07 02:44 | 44.44831 | 19.67308 | 39994 ft | 436 kts | 246° |
| 2026-05-07 02:45 | 44.42327 | 19.59532 | 40017 ft | 436 kts | 246° |
| 2026-05-07 02:45 | 44.39833 | 19.51810 | 40003 ft | 436 kts | 246° |
| 2026-05-07 02:46 | 44.37332 | 19.44089 | 40014 ft | 436 kts | 246° |
| 2026-05-07 02:46 | 44.34826 | 19.36373 | 40027 ft | 436 kts | 246° |
| 2026-05-07 02:47 | 44.32290 | 19.28593 | 40041 ft | 435 kts | 245° |
| 2026-05-07 02:47 | 44.29776 | 19.20901 | 40032 ft | 435 kts | 245° |
| 2026-05-07 02:48 | 44.27240 | 19.13161 | 40012 ft | 436 kts | 245° |
| 2026-05-07 02:48 | 44.24708 | 19.05459 | 40026 ft | 436 kts | 245° |
| 2026-05-07 02:49 | 44.22186 | 18.97808 | 40033 ft | 434 kts | 245° |
| 2026-05-07 02:49 | 44.19632 | 18.90082 | 39997 ft | 435 kts | 245° |
| 2026-05-07 02:50 | 44.17099 | 18.82443 | 39983 ft | 435 kts | 245° |
| 2026-05-07 02:50 | 44.14555 | 18.74792 | 40048 ft | 433 kts | 245° |
| 2026-05-07 02:51 | 44.12021 | 18.67192 | 40035 ft | 433 kts | 245° |
| 2026-05-07 02:51 | 44.09465 | 18.59548 | 40046 ft | 433 kts | 245° |
| 2026-05-07 02:52 | 44.06921 | 18.51966 | 40030 ft | 434 kts | 245° |
| 2026-05-07 02:52 | 44.04350 | 18.44319 | 40060 ft | 434 kts | 245° |
| 2026-05-07 02:53 | 44.01783 | 18.36711 | 40077 ft | 434 kts | 245° |
| 2026-05-07 02:53 | 43.99193 | 18.29053 | 40048 ft | 435 kts | 244° |
| 2026-05-07 02:54 | 43.96599 | 18.21401 | 40041 ft | 435 kts | 244° |
| 2026-05-07 02:54 | 43.94000 | 18.13763 | 40036 ft | 436 kts | 244° |
| 2026-05-07 02:55 | 43.91399 | 18.06135 | 40024 ft | 436 kts | 244° |
| 2026-05-07 02:55 | 43.88805 | 17.98550 | 40050 ft | 435 kts | 244° |
| 2026-05-07 02:56 | 43.86175 | 17.90883 | 40050 ft | 435 kts | 244° |
| 2026-05-07 02:56 | 43.83573 | 17.83313 | 40028 ft | 435 kts | 244° |
| 2026-05-07 02:57 | 43.80966 | 17.75755 | 40015 ft | 435 kts | 244° |
| 2026-05-07 02:57 | 43.78353 | 17.68204 | 40036 ft | 435 kts | 243° |
| 2026-05-07 02:58 | 43.75736 | 17.60656 | 40014 ft | 435 kts | 244° |
| 2026-05-07 02:58 | 43.73095 | 17.53065 | 40019 ft | 435 kts | 244° |
| 2026-05-07 02:59 | 43.70467 | 17.45531 | 40028 ft | 437 kts | 244° |
| 2026-05-07 02:59 | 43.67822 | 17.37968 | 40026 ft | 436 kts | 244° |
| 2026-05-07 03:00 | 43.65165 | 17.30386 | 40030 ft | 436 kts | 243° |
| 2026-05-07 03:00 | 43.62498 | 17.22790 | 40031 ft | 436 kts | 243° |
| 2026-05-07 03:01 | 43.59850 | 17.15265 | 40036 ft | 436 kts | 243° |
| 2026-05-07 03:01 | 43.57188 | 17.07711 | 40048 ft | 436 kts | 243° |
| 2026-05-07 03:02 | 43.54533 | 17.00193 | 40008 ft | 435 kts | 243° |
| 2026-05-07 03:02 | 43.51883 | 16.92703 | 40026 ft | 435 kts | 243° |
| 2026-05-07 03:03 | 43.49216 | 16.85182 | 40001 ft | 435 kts | 243° |
| 2026-05-07 03:03 | 43.46543 | 16.77660 | 40024 ft | 436 kts | 243° |
| 2026-05-07 03:04 | 43.43870 | 16.70149 | 40014 ft | 435 kts | 243° |
| 2026-05-07 03:04 | 43.41192 | 16.62648 | 39991 ft | 435 kts | 243° |
| 2026-05-07 03:05 | 43.38507 | 16.55147 | 39991 ft | 436 kts | 243° |
| 2026-05-07 03:05 | 43.35813 | 16.47646 | 40001 ft | 436 kts | 243° |
| 2026-05-07 03:06 | 43.33126 | 16.40191 | 39993 ft | 436 kts | 243° |
| 2026-05-07 03:06 | 43.30399 | 16.32659 | 39987 ft | 436 kts | 242° |
| 2026-05-07 03:07 | 43.27688 | 16.25199 | 39973 ft | 438 kts | 242° |
| 2026-05-07 03:07 | 43.24938 | 16.17664 | 39969 ft | 438 kts | 242° |
| 2026-05-07 03:08 | 43.21855 | 16.10470 | 39955 ft | 438 kts | 237° |
| 2026-05-07 03:08 | 43.18577 | 16.03388 | 39961 ft | 438 kts | 237° |
| 2026-05-07 03:09 | 43.15314 | 15.96346 | 39961 ft | 439 kts | 237° |
| 2026-05-07 03:09 | 43.12038 | 15.89286 | 39961 ft | 439 kts | 237° |
| 2026-05-07 03:10 | 43.08754 | 15.82222 | 39954 ft | 439 kts | 237° |
| 2026-05-07 03:10 | 43.05465 | 15.75163 | 39954 ft | 439 kts | 237° |
| 2026-05-07 03:11 | 43.02173 | 15.68109 | 39943 ft | 438 kts | 237° |
| 2026-05-07 03:11 | 42.98888 | 15.61086 | 39937 ft | 440 kts | 237° |
| 2026-05-07 03:12 | 42.95587 | 15.54044 | 39920 ft | 438 kts | 237° |
| 2026-05-07 03:12 | 42.92294 | 15.47035 | 39902 ft | 438 kts | 237° |
| 2026-05-07 03:13 | 42.89117 | 15.39898 | 39950 ft | 437 kts | 240° |
| 2026-05-07 03:13 | 42.86086 | 15.32645 | 39894 ft | 439 kts | 239° |
| 2026-05-07 03:14 | 42.83065 | 15.25444 | 39983 ft | 438 kts | 240° |
| 2026-05-07 03:15 | 42.78481 | 15.14552 | 39881 ft | 440 kts | 240° |
| 2026-05-07 03:15 | 42.75459 | 15.07396 | 39954 ft | 440 kts | 240° |
| 2026-05-07 03:16 | 42.72391 | 15.00147 | 39963 ft | 439 kts | 239° |
| 2026-05-07 03:16 | 42.69346 | 14.92973 | 39953 ft | 438 kts | 239° |
| 2026-05-07 03:17 | 42.66319 | 14.85779 | 39968 ft | 438 kts | 240° |
| 2026-05-07 03:17 | 42.63295 | 14.78506 | 39924 ft | 441 kts | 240° |
| 2026-05-07 03:18 | 42.60286 | 14.71288 | 39970 ft | 439 kts | 240° |
| 2026-05-07 03:18 | 42.57261 | 14.64035 | 39953 ft | 440 kts | 240° |
| 2026-05-07 03:19 | 42.54232 | 14.56793 | 39958 ft | 440 kts | 240° |
| 2026-05-07 03:19 | 42.52724 | 14.53194 | 39852 ft | 443 kts | 240° |
| 2026-05-07 03:19 | 42.51195 | 14.49549 | 39176 ft | 448 kts | 240° |
| 2026-05-07 03:19 | 42.49663 | 14.45902 | 38471 ft | 439 kts | 240° |
| 2026-05-07 03:20 | 42.48141 | 14.42281 | 37914 ft | 437 kts | 240° |
| 2026-05-07 03:20 | 42.46639 | 14.38720 | 37215 ft | 433 kts | 240° |
| 2026-05-07 03:20 | 42.45161 | 14.35212 | 36584 ft | 432 kts | 240° |
| 2026-05-07 03:20 | 42.43677 | 14.31697 | 35982 ft | 433 kts | 239° |
| 2026-05-07 03:21 | 42.42144 | 14.28072 | 35231 ft | 434 kts | 239° |
| 2026-05-07 03:21 | 42.40650 | 14.24544 | 34505 ft | 433 kts | 238° |
| 2026-05-07 03:21 | 42.39128 | 14.20954 | 33711 ft | 433 kts | 239° |
| 2026-05-07 03:21 | 42.37637 | 14.17444 | 32985 ft | 434 kts | 238° |
| 2026-05-07 03:22 | 42.36132 | 14.13906 | 32257 ft | 430 kts | 238° |
| 2026-05-07 03:22 | 42.34655 | 14.10442 | 31541 ft | 425 kts | 239° |
| 2026-05-07 03:22 | 42.33176 | 14.06978 | 30858 ft | 419 kts | 239° |
| 2026-05-07 03:22 | 42.31717 | 14.03563 | 30351 ft | 412 kts | 239° |
| 2026-05-07 03:23 | 42.30292 | 14.00231 | 29790 ft | 411 kts | 239° |
| 2026-05-07 03:23 | 42.28853 | 13.96873 | 29291 ft | 407 kts | 239° |
| 2026-05-07 03:23 | 42.27432 | 13.93559 | 28742 ft | 406 kts | 239° |
| 2026-05-07 03:23 | 42.26017 | 13.90263 | 28200 ft | 402 kts | 239° |
| 2026-05-07 03:24 | 42.24637 | 13.87051 | 27679 ft | 398 kts | 239° |
| 2026-05-07 03:24 | 42.23250 | 13.83823 | 27153 ft | 396 kts | 239° |
| 2026-05-07 03:24 | 42.21868 | 13.80613 | 26620 ft | 393 kts | 239° |
| 2026-05-07 03:24 | 42.20496 | 13.77430 | 26090 ft | 390 kts | 239° |
| 2026-05-07 03:25 | 42.19139 | 13.74259 | 25586 ft | 387 kts | 241° |
| 2026-05-07 03:25 | 42.18068 | 13.70935 | 25030 ft | 384 kts | 249° |
| 2026-05-07 03:25 | 42.17137 | 13.67582 | 24546 ft | 380 kts | 249° |
| 2026-05-07 03:25 | 42.16208 | 13.64265 | 24035 ft | 378 kts | 249° |
| 2026-05-07 03:26 | 42.15280 | 13.60960 | 23545 ft | 375 kts | 249° |
| 2026-05-07 03:26 | 42.14357 | 13.57679 | 23039 ft | 372 kts | 249° |
| 2026-05-07 03:26 | 42.13438 | 13.54419 | 22552 ft | 371 kts | 249° |
| 2026-05-07 03:26 | 42.12524 | 13.51184 | 22058 ft | 367 kts | 249° |
| 2026-05-07 03:27 | 42.11620 | 13.47986 | 21564 ft | 365 kts | 248° |
| 2026-05-07 03:27 | 42.10721 | 13.44813 | 21083 ft | 362 kts | 249° |
| 2026-05-07 03:27 | 42.09827 | 13.41662 | 20619 ft | 360 kts | 249° |
| 2026-05-07 03:27 | 42.08935 | 13.38523 | 20130 ft | 357 kts | 249° |
| 2026-05-07 03:28 | 42.08037 | 13.35366 | 19669 ft | 356 kts | 248° |
| 2026-05-07 03:28 | 42.07152 | 13.32261 | 19174 ft | 353 kts | 248° |
| 2026-05-07 03:28 | 42.06318 | 13.29341 | 18756 ft | 352 kts | 248° |
| 2026-05-07 03:28 | 42.05245 | 13.26399 | 18286 ft | 348 kts | 239° |
| 2026-05-07 03:29 | 42.03990 | 13.23591 | 17821 ft | 347 kts | 239° |
| 2026-05-07 03:29 | 42.02751 | 13.20814 | 17340 ft | 345 kts | 239° |
| 2026-05-07 03:29 | 42.01510 | 13.18031 | 16905 ft | 344 kts | 239° |
| 2026-05-07 03:29 | 42.00406 | 13.15181 | 16421 ft | 341 kts | 249° |
| 2026-05-07 03:30 | 41.99958 | 13.12099 | 15950 ft | 341 kts | 266° |
| 2026-05-07 03:30 | 42.00222 | 13.08942 | 15474 ft | 341 kts | 279° |
| 2026-05-07 03:30 | 42.00734 | 13.05823 | 15015 ft | 339 kts | 280° |
| 2026-05-07 03:30 | 42.01237 | 13.02733 | 14560 ft | 338 kts | 280° |
| 2026-05-07 03:31 | 42.01738 | 12.99647 | 14121 ft | 335 kts | 280° |
| 2026-05-07 03:31 | 42.02226 | 12.96636 | 13660 ft | 321 kts | 281° |
| 2026-05-07 03:31 | 42.02688 | 12.93780 | 13285 ft | 303 kts | 281° |
| 2026-05-07 03:31 | 42.03135 | 12.91076 | 12876 ft | 289 kts | 281° |
| 2026-05-07 03:32 | 42.03593 | 12.88501 | 12509 ft | 277 kts | 282° |
| 2026-05-07 03:32 | 42.04033 | 12.86025 | 12138 ft | 267 kts | 281° |
| 2026-05-07 03:32 | 42.04459 | 12.83629 | 11784 ft | 257 kts | 282° |
| 2026-05-07 03:32 | 42.04867 | 12.81326 | 11472 ft | 248 kts | 282° |
| 2026-05-07 03:33 | 42.05262 | 12.79089 | 11121 ft | 242 kts | 282° |
| 2026-05-07 03:33 | 42.05647 | 12.76911 | 10818 ft | 234 kts | 282° |
| 2026-05-07 03:33 | 42.06021 | 12.74784 | 10542 ft | 236 kts | 282° |
| 2026-05-07 03:33 | 42.06405 | 12.72598 | 10179 ft | 239 kts | 282° |
| 2026-05-07 03:34 | 42.06786 | 12.70425 | 9871 ft | 238 kts | 282° |
| 2026-05-07 03:34 | 42.07164 | 12.68269 | 9515 ft | 239 kts | 282° |
| 2026-05-07 03:34 | 42.07547 | 12.66080 | 9146 ft | 239 kts | 282° |
| 2026-05-07 03:34 | 42.07930 | 12.63885 | 8759 ft | 241 kts | 282° |
| 2026-05-07 03:35 | 42.08316 | 12.61674 | 8397 ft | 240 kts | 282° |
| 2026-05-07 03:35 | 42.08702 | 12.59464 | 8019 ft | 239 kts | 282° |
| 2026-05-07 03:35 | 42.09075 | 12.57322 | 7680 ft | 233 kts | 282° |
| 2026-05-07 03:35 | 42.09325 | 12.55398 | 7364 ft | 227 kts | 272° |
| 2026-05-07 03:36 | 42.09514 | 12.53289 | 7009 ft | 224 kts | 281° |
| 2026-05-07 03:36 | 42.09987 | 12.51300 | 6713 ft | 223 kts | 297° |
| 2026-05-07 03:36 | 42.10798 | 12.49545 | 6448 ft | 221 kts | 302° |
| 2026-05-07 03:36 | 42.11652 | 12.47821 | 6168 ft | 219 kts | 302° |
| 2026-05-07 03:37 | 42.12358 | 12.46012 | 5856 ft | 216 kts | 281° |
| 2026-05-07 03:37 | 42.12207 | 12.44055 | 5539 ft | 212 kts | 242° |
| 2026-05-07 03:37 | 42.11172 | 12.42712 | 5228 ft | 210 kts | 202° |
| 2026-05-07 03:37 | 42.09730 | 12.42386 | 4926 ft | 209 kts | 181° |
| 2026-05-07 03:38 | 42.08297 | 12.42725 | 4633 ft | 208 kts | 164° |
| 2026-05-07 03:38 | 42.06923 | 12.43290 | 4351 ft | 207 kts | 164° |
| 2026-05-07 03:38 | 42.05532 | 12.43852 | 4061 ft | 206 kts | 164° |
| 2026-05-07 03:38 | 42.04150 | 12.44409 | 3772 ft | 205 kts | 164° |
| 2026-05-07 03:39 | 42.02798 | 12.44953 | 3491 ft | 203 kts | 164° |
| 2026-05-07 03:39 | 42.01432 | 12.45503 | 3205 ft | 202 kts | 163° |
| 2026-05-07 03:39 | 42.00089 | 12.46043 | 2999 ft | 193 kts | 163° |
| 2026-05-07 03:39 | 41.98873 | 12.46530 | 3064 ft | 173 kts | 163° |
| 2026-05-07 03:40 | 41.97741 | 12.47105 | 3014 ft | 172 kts | 154° |
| 2026-05-07 03:40 | 41.96674 | 12.47850 | 3011 ft | 171 kts | 152° |
| 2026-05-07 03:40 | 41.95605 | 12.48596 | 3006 ft | 172 kts | 153° |
| 2026-05-07 03:40 | 41.94549 | 12.49340 | 3010 ft | 172 kts | 153° |
| 2026-05-07 03:41 | 41.93481 | 12.50093 | 3009 ft | 172 kts | 153° |
| 2026-05-07 03:41 | 41.92413 | 12.50848 | 2956 ft | 175 kts | 153° |
| 2026-05-07 03:41 | 41.91323 | 12.51607 | 2726 ft | 173 kts | 153° |
| 2026-05-07 03:41 | 41.90299 | 12.52314 | 2511 ft | 154 kts | 152° |
| 2026-05-07 03:42 | 41.89387 | 12.52942 | 2357 ft | 138 kts | 152° |
| 2026-05-07 03:42 | 41.88547 | 12.53521 | 2158 ft | 130 kts | 152° |
| 2026-05-07 03:42 | 41.87773 | 12.54055 | 1994 ft | 117 kts | 152° |
| 2026-05-07 03:42 | 41.87092 | 12.54522 | 1881 ft | 107 kts | 152° |
| 2026-05-07 03:43 | 41.86366 | 12.55015 | 1638 ft | 122 kts | 152° |
| 2026-05-07 03:43 | 41.85609 | 12.55530 | 1539 ft | 124 kts | 152° |
| 2026-05-07 03:43 | 41.84799 | 12.56090 | 1351 ft | 132 kts | 152° |
| 2026-05-07 03:43 | 41.83996 | 12.56643 | 1160 ft | 127 kts | 153° |
| 2026-05-07 03:44 | 41.83184 | 12.57196 | 1020 ft | 129 kts | 152° |
| 2026-05-07 03:44 | 41.82390 | 12.57769 | 842 ft | 129 kts | 151° |
| 2026-05-07 03:44 | 41.81607 | 12.58322 | 639 ft | 128 kts | 152° |
| 2026-05-07 03:44 | 41.80796 | 12.58889 | 475 ft | 131 kts | 152° |
| 2026-05-07 03:45 | 41.80043 | 12.59412 | 434 ft | 105 kts | 153° |
| 2026-05-07 03:45 | 41.79568 | 12.59738 | 434 ft | 52 kts | 153° |
| 2026-05-07 03:45 | 41.79352 | 12.59887 | 434 ft | 19 kts | 154° |
| 2026-05-07 03:45 | 41.79272 | 12.59915 | 434 ft | 7 kts | 211° |
| 2026-05-07 03:46 | 41.79252 | 12.59883 | 434 ft | 1 kts | 240° |
| 2026-05-07 03:46 | 41.79252 | 12.59882 | 434 ft | 0 kts | 240° |
| 2026-05-07 03:47 | 41.79250 | 12.59878 | 434 ft | 3 kts | 239° |
| 2026-05-07 03:47 | 41.79225 | 12.59827 | 434 ft | 7 kts | 240° |
| 2026-05-07 03:47 | 41.79238 | 12.59760 | 434 ft | 11 kts | 330° |
| 2026-05-07 03:47 | 41.79320 | 12.59703 | 434 ft | 15 kts | 331° |
| 2026-05-07 03:48 | 41.79425 | 12.59630 | 434 ft | 17 kts | 333° |
| 2026-05-07 03:48 | 41.79509 | 12.59572 | 434 ft | 8 kts | 330° |
| 2026-05-07 03:48 | 41.79536 | 12.59538 | 434 ft | 7 kts | 285° |
| 2026-05-07 03:48 | 41.79504 | 12.59472 | 434 ft | 8 kts | 231° |
| 2026-05-07 03:49 | 41.79467 | 12.59408 | 434 ft | 8 kts | 234° |
| 2026-05-07 03:49 | 41.79472 | 12.59336 | 434 ft | 2 kts | 318° |
| 2026-05-07 03:49 | 41.79485 | 12.59322 | 434 ft | 4 kts | 334° |
| 2026-05-07 03:49 | 41.79514 | 12.59339 | 434 ft | 3 kts | 53° |
| 2026-05-07 03:50 | 41.79516 | 12.59343 | 434 ft | 0 kts | 53° |